• Join FlightAware (Why Join?)
  • Login
  • US Flag 
06:02AM EDT


 

Airport Tracker/Info


-or-


 

Live Flight TrackerFlight Track Log ✈ CES2497 ✈ 31-Oct-2013 ✈ ZHHH / WUH - ZPPP / KMG

Flight Track Log - Related Links

Times and Time Zones

All times are in EDT time to prevent confusion due to time zone crossing. See the CES2497 flight status page for this flight to view local times or setup timezone preferences in your user account.

Time Position Orientation Groundspeed Altitude Reporting Facility
EDT Latitude Longitude Course Direction KTS MPH feet Rate Location/Type
08:00PM 30.0873 112.6463 243° Southwest  Level Estimated
08:01PM 30.0431 112.5494 242° Southwest  Level Estimated
08:02PM 29.9989 112.4526 242° Southwest  Level Estimated
08:03PM 29.9547 112.3559 242° Southwest  Level Estimated
08:04PM 29.9103 112.2593 242° Southwest  Level Estimated
08:05PM 29.8659 112.1628 242° Southwest  Level Estimated
08:06PM 29.8214 112.0663 242° Southwest  Level Estimated
08:07PM 29.7768 111.9700 242° Southwest  Level Estimated
08:08PM 29.7322 111.8737 242° Southwest  Level Estimated
08:09PM 29.6875 111.7775 242° Southwest  Level Estimated
08:10PM 29.6427 111.6814 242° Southwest  Level Estimated
08:11PM 29.5979 111.5854 242° Southwest  Level Estimated
08:12PM 29.5530 111.4894 242° Southwest  Level Estimated
08:13PM 29.5080 111.3936 242° Southwest  Level Estimated
08:14PM 29.4630 111.2978 242° Southwest  Level Estimated
08:15PM 29.4178 111.2022 242° Southwest  Level Estimated
08:16PM 29.3727 111.1066 242° Southwest  Level Estimated
08:17PM 29.3274 111.0111 241° Southwest  Level Estimated
08:18PM 29.2821 110.9157 241° Southwest  Level Estimated
08:19PM 29.2367 110.8203 241° Southwest  Level Estimated
08:20PM 29.1912 110.7251 241° Southwest  Level Estimated
08:21PM 29.1457 110.6299 241° Southwest  Level Estimated
08:22PM 29.1001 110.5348 241° Southwest  Level Estimated
08:23PM 29.0545 110.4398 241° Southwest  Level Estimated
08:24PM 29.0087 110.3449 241° Southwest  Level Estimated
08:25PM 28.9629 110.2501 241° Southwest  Level Estimated
08:26PM 28.9171 110.1553 241° Southwest  Level Estimated
08:27PM 28.8711 110.0607 241° Southwest  Level Estimated
08:28PM 28.8252 109.9661 241° Southwest  Level Estimated
08:29PM 28.7791 109.8716 241° Southwest  Level Estimated
08:30PM 28.7330 109.7772 241° Southwest  Level Estimated
08:31PM 28.6868 109.6829 241° Southwest  Level Estimated
08:32PM 28.6405 109.5886 241° Southwest  Level Estimated
08:33PM 28.5942 109.4945 241° Southwest  Level Estimated
08:34PM 28.5478 109.4004 241° Southwest  Level Estimated
08:35PM 28.5014 109.3064 241° Southwest  Level Estimated
08:36PM 28.4549 109.2125 241° Southwest  Level Estimated
08:37PM 28.4083 109.1186 241° Southwest  Level Estimated
08:38PM 28.3617 109.0249 241° Southwest  Level Estimated
08:39PM 28.3150 108.9312 240° Southwest  Level Estimated
08:40PM 28.2682 108.8376 240° Southwest  Level Estimated
08:41PM 28.2213 108.7441 240° Southwest  Level Estimated
08:42PM 28.1744 108.6507 240° Southwest  Level Estimated
08:43PM 28.1275 108.5574 240° Southwest  Level Estimated
08:44PM 28.0805 108.4641 240° Southwest  Level Estimated
08:45PM 28.0334 108.3710 240° Southwest  Level Estimated
08:46PM 27.9862 108.2779 240° Southwest  Level Estimated
08:47PM 27.9390 108.1849 240° Southwest  Level Estimated
08:48PM 27.8918 108.0919 240° Southwest  Level Estimated
08:49PM 27.8444 107.9991 240° Southwest  Level Estimated
08:50PM 27.7970 107.9063 240° Southwest  Level Estimated
08:51PM 27.7495 107.8136 240° Southwest  Level Estimated
08:52PM 27.7020 107.7210 240° Southwest  Level Estimated
08:53PM 27.6544 107.6285 240° Southwest  Level Estimated
08:54PM 27.6068 107.5361 240° Southwest  Level Estimated
08:55PM 27.5591 107.4437 240° Southwest  Level Estimated
08:56PM 27.5113 107.3514 240° Southwest  Level Estimated
08:57PM 27.4635 107.2592 240° Southwest  Level Estimated
08:58PM 27.4156 107.1671 240° Southwest  Level Estimated
08:59PM 27.3676 107.0751 240° Southwest  Level Estimated
09:00PM 27.3196 106.9831 240° Southwest  Level Estimated
09:01PM 27.2716 106.8912 240° Southwest  Level Estimated
09:02PM 27.2234 106.7994 239° Southwest  Level Estimated
09:03PM 27.1752 106.7077 239° Southwest  Level Estimated
09:04PM 27.1270 106.6161 239° Southwest  Level Estimated
09:05PM 27.0787 106.5245 239° Southwest  Level Estimated
09:06PM 27.0303 106.4330 239° Southwest  Level Estimated
09:07PM 26.9819 106.3416 239° Southwest  Level Estimated
09:08PM 26.9334 106.2503 239° Southwest  Level Estimated
09:09PM 26.8849 106.1590 239° Southwest  Level Estimated
09:10PM 26.8363 106.0678 239° Southwest  Level Estimated
09:11PM 26.7876 105.9767 239° Southwest  Level Estimated
09:12PM 26.7389 105.8857 239° Southwest  Level Estimated
09:13PM 26.6901 105.7948 239° Southwest  Level Estimated
09:14PM 26.6413 105.7039 239° Southwest  Level Estimated
09:15PM 26.5924 105.6131 239° Southwest  Level Estimated
09:16PM 26.5434 105.5224 239° Southwest  Level Estimated
09:17PM 26.4944 105.4318 239° Southwest  Level Estimated
09:18PM 26.4453 105.3412 239° Southwest  Level Estimated
09:19PM 26.3962 105.2508 239° Southwest  Level Estimated
09:20PM 26.3470 105.1604 239° Southwest  Level Estimated
09:21PM 26.2978 105.0701 239° Southwest  Level Estimated
09:22PM 26.2485 104.9798 239° Southwest  Level Estimated
09:23PM 26.1992 104.8896 239° Southwest  Level Estimated
09:24PM 26.1498 104.7996 239° Southwest  Level Estimated
09:25PM 26.1003 104.7095 239° Southwest  Level Estimated
09:26PM 26.0508 104.6196 239° Southwest  Level Estimated
09:27PM 26.0012 104.5297 238° Southwest  Level Estimated
09:28PM 25.9516 104.4399 238° Southwest  Level Estimated
09:29PM 25.9019 104.3502 238° Southwest  Level Estimated
09:30PM 25.8522 104.2606 238° Southwest  Level Estimated
09:31PM 25.8024 104.1711 238° Southwest  Level Estimated
09:32PM 25.7525 104.0816 238° Southwest  Level Estimated
09:33PM 25.7026 103.9922 238° Southwest  Level Estimated
09:34PM 25.6527 103.9028 238° Southwest  Level Estimated
09:35PM 25.6026 103.8136 238° Southwest  Level Estimated
09:36PM 25.5526 103.7244 238° Southwest  Level Estimated
09:37PM 25.5025 103.6353 238° Southwest  Level Estimated
09:38PM 25.4523 103.5462 238° Southwest  Level Estimated
09:39PM 25.4021 103.4573 238° Southwest  Level Estimated
09:40PM 25.3518 103.3684 238° Southwest  Level Estimated
09:41PM 25.3015 103.2796 238° Southwest  Level Estimated
09:42PM 25.2511 103.1908 238° Southwest  Level Estimated
09:43PM 25.2006 103.1022 238° Southwest  Level Estimated
09:44PM 25.1501 103.0136 238° Southwest  Level Estimated
09:45PM 25.1019 102.9292 238° Southwest  Level Estimated
09:46PM 25.1019 102.9292 326° Northwest  Level Estimated
09:47PM 25.1019 102.9292 326° Northwest  Level Estimated
09:48PM 25.1019 102.9292 326° Northwest  Level Estimated
09:49PM 25.1019 102.9292 326° Northwest  Level Estimated
09:50PM 25.1019 102.9292 326° Northwest  Level Estimated
09:51PM 25.1019 102.9292 326° Northwest  Level Estimated
09:52PM 25.1019 102.9292 326° Northwest  Level Estimated
09:53PM 25.1019 102.9292 326° Northwest  Level Estimated
09:54PM 25.1019 102.9292 326° Northwest  Level Estimated
09:55PM 25.1019 102.9292 326° Northwest  Level Estimated
09:56PM 25.1019 102.9292 326° Northwest  Level Estimated
09:57PM 25.1019 102.9292 326° Northwest  Level Estimated
09:58PM 25.1019 102.9292 326° Northwest  Level Estimated
09:59PM 25.1019 102.9292 326° Northwest  Level Estimated
10:00PM 25.1019 102.9292 326° Northwest  Level Estimated
10:01PM 25.1019 102.9292 326° Northwest  Level Estimated